Sevilla, España

3:25 PM CEST en Octubre 25, 2014 (GMT +0200)
San Pablo | Change Station
CLOSE
Current Station
Aeropuerto
Location: Sevilla,
Altura: 102 ft
Estaciones meteorológicas cercanas

Alt 102 ft 37.42 °N, 5.89 °W | Updated 25 minutes ago

Clear
Despejado
82 ° F
Sensación térmica 82 ° F
N
2
Viento Variable Viento desde Variable

Hoy
Alta -- | Baja -- ° F
--% Posibilidad de precipitaciones
Ayer
Alta -- | Baja -- ° F
Precip. -- pul
8:41 AM 7:33 PM
Creciente, 3% visible
Presión 30.04 pul
Visibilidad -9999.0 Millas
Nubes
Punto de rocío 43 ° F
Humedad 25%
Precipitaciones 0.00 pul
Espesor de la nieve No disponible.
UV No disponible.
Polen No disponible.
Calidad del aire No disponible.
Flu Activity No disponible.
METAR LEZL 251300Z VRB02KT CAVOK 28/06 Q1017 NOSIG

More Conditions Fewer Conditions

Presión 30.04 pul
Visibilidad -9999.0 Millas
Nubes
Punto de rocío 43 ° F
Humedad 25%
Precipitaciones 0.00 pul
Espesor de la nieve No disponible.
UV No disponible.
Polen No disponible.
Calidad del aire No disponible.
Flu Activity No disponible.
METAR LEZL 251300Z VRB02KT CAVOK 28/06 Q1017 NOSIG

More Conditions Fewer Conditions

10-Day Weather Forecast

Almanac

Astronomía

Oct. 25, 2014 Salida Puesta
Hora real 8:41 AM CEST 7:33 PM CEST
Crepúsculo civil 8:14 AM CEST 8:00 PM CEST
Crepúsculo náutico 7:43 AM CEST 8:30 PM CEST
Crepúsculo astronómico 7:13 AM CEST 9:01 PM CEST
Luna 10:04 AM CEST 8:47 PM CEST
Horas de luz 11h 46m
Horas de luz
10h 52m
Tomorrow will be 2m 13s shorter.
Creciente, 3% of the Moon is Illuminated
Hoy
Creciente
Oct 30
Cuarto creciente
Nov 6
Luna llena
Nov 14
Cuarto menguante
Nov 22
Nueva

Extremos de ayer

Máximos del país Bajas del país

Community

WunderPhotos

Upload Photos

1,764,829 ¡fotos cargadas!

Nearby

Calidad del aire

Not available.

Grosos de nieve

Not available.

Actividad de terremotos

Ciudad Distance Mag. Tiempo y dato
No hay informes recientes de la actividad sísmica.
Magnitud mínima muestra es 2,5.

Temperaturas de aguas costeras

Lugar Temperatura
Sin partes meteorológicos de las estaciones

Estaciones meteorológicas cercanas